Time;durP1;ratioP1;P1;durP2;ratioP2;P2;SDS_P1;SDS_P2;PMS_P1;PMS_P2;Temp;Humidity;BMP_temperature;BMP_pressure;BME280_temperature;BME280_humidity;BME280_pressure;Samples;Min_cycle;Max_cycle;Signal;HPM_P1;HPM_P2
2022/11/26 00:00:52;;;;;;;;;;;4.90;99.90;;;;;;5113260;27;20308;-69
2022/11/26 00:03:18;;;;;;;;;;;5.00;99.90;;;;;;5092108;28;20303;-69
2022/11/26 00:05:45;;;;;;;;;;;5.00;99.90;;;;;;5113027;27;19919;-69
2022/11/26 00:08:16;;;;;;;;;;;5.00;99.90;;;;;;5111025;28;19964;-69
2022/11/26 00:10:42;;;;;;;;;;;5.00;99.90;;;;;;5145490;27;19963;-70
2022/11/26 00:13:14;;;;;;;;;;;4.90;99.90;;;;;;5110936;27;20372;-69
2022/11/26 00:15:39;;;;;;;;;;;5.00;99.90;;;;;;5090902;28;20348;-69
2022/11/26 00:18:05;;;;;;;;;;;5.00;99.90;;;;;;5123312;27;19923;-69
2022/11/26 00:20:31;;;;;;;;;;;5.00;99.90;;;;;;5127863;27;19977;-70
2022/11/26 00:23:00;;;;;;;;;;;5.00;99.90;;;;;;5116706;27;19954;-69
2022/11/26 00:25:32;;;;;;;;;;;5.00;99.90;;;;;;5110348;27;19923;-69
2022/11/26 00:27:58;;;;;;;;;;;4.90;99.90;;;;;;5118269;27;19927;-69
2022/11/26 00:30:24;;;;;;;;;;;4.90;99.90;;;;;;5095167;28;19919;-68
2022/11/26 00:32:50;;;;;;;;;;;4.90;99.90;;;;;;5096101;28;20011;-70
2022/11/26 00:35:16;;;;;;;;;;;4.90;99.90;;;;;;5111437;27;19920;-69
2022/11/26 00:37:53;;;;;;;;;;;4.90;99.90;;;;;;5108766;28;20344;-69
2022/11/26 00:40:30;;;;;;;;;;;4.80;99.90;;;;;;5105800;28;20015;-69
2022/11/26 00:42:55;;;;;;;;;;;4.80;99.90;;;;;;5112487;27;20022;-69
2022/11/26 00:45:22;;;;;;;;;;;4.80;99.90;;;;;;5114524;28;20018;-69
2022/11/26 00:47:49;;;;;;;;;;;4.90;99.90;;;;;;5107371;28;19920;-69
2022/11/26 00:50:19;;;;;;;;;;;4.90;99.90;;;;;;5108556;28;20381;-69
2022/11/26 00:52:45;;;;;;;;;;;4.90;99.90;;;;;;5107364;28;19919;-69
2022/11/26 00:55:17;;;;;;;;;;;4.80;99.90;;;;;;5130795;27;19919;-69
2022/11/26 00:57:43;;;;;;;;;;;4.80;99.90;;;;;;5113898;27;20450;-69
2022/11/26 01:00:18;;;;;;;;;;;4.80;99.90;;;;;;5117920;27;20328;-69
2022/11/26 01:02:45;;;;;;;;;;;4.90;99.90;;;;;;5115306;27;19945;-69
2022/11/26 01:05:10;;;;;;;;;;;4.80;99.90;;;;;;5122650;27;19920;-69
2022/11/26 01:07:36;;;;;;;;;;;4.80;99.90;;;;;;5130622;27;20380;-69
2022/11/26 01:10:02;;;;;;;;;;;4.80;99.90;;;;;;5118300;27;19920;-69
2022/11/26 01:12:28;;;;;;;;;;;4.80;99.90;;;;;;5120693;27;19919;-69
2022/11/26 01:14:53;;;;;;;;;;;5.30;99.90;;;;;;5099474;27;19920;-69
2022/11/26 01:17:19;;;;;;;;;;;4.80;99.90;;;;;;5113619;27;20014;-69
2022/11/26 01:19:45;;;;;;;;;;;4.80;99.90;;;;;;5117660;27;20022;-69
2022/11/26 01:22:19;;;;;;;;;;;4.80;99.90;;;;;;5095964;27;20056;-69
2022/11/26 01:24:44;;;;;;;;;;;4.70;99.90;;;;;;5116019;27;19966;-69
2022/11/26 01:27:11;;;;;;;;;;;4.70;99.90;;;;;;5114398;27;20020;-69
2022/11/26 01:29:36;;;;;;;;;;;4.80;99.90;;;;;;5123498;27;20284;-70
2022/11/26 01:32:02;;;;;;;;;;;4.70;99.90;;;;;;5100723;28;19920;-70
2022/11/26 01:34:28;;;;;;;;;;;4.70;99.90;;;;;;5077429;28;19920;-69
2022/11/26 01:36:53;;;;;;;;;;;4.70;99.90;;;;;;5116261;27;20083;-69
2022/11/26 01:39:20;;;;;;;;;;;4.70;99.90;;;;;;5110439;27;19985;-69
2022/11/26 01:41:55;;;;;;;;;;;4.70;99.90;;;;;;5111484;27;19931;-69
2022/11/26 01:44:22;;;;;;;;;;;4.70;99.90;;;;;;5113221;27;19920;-69
2022/11/26 01:46:48;;;;;;;;;;;4.70;99.90;;;;;;5122176;27;19928;-70
2022/11/26 01:49:15;;;;;;;;;;;4.70;99.90;;;;;;5098135;27;19919;-69
2022/11/26 01:51:40;;;;;;;;;;;4.60;99.90;;;;;;5114966;27;19998;-70
2022/11/26 01:54:06;;;;;;;;;;;4.70;99.90;;;;;;5115476;27;20393;-69
2022/11/26 01:56:32;;;;;;;;;;;4.70;99.90;;;;;;5112931;27;19927;-69
2022/11/26 01:59:05;;;;;;;;;;;4.60;99.90;;;;;;5115818;27;19993;-70
2022/11/26 02:01:32;;;;;;;;;;;4.70;99.90;;;;;;5116361;27;19927;-70
2022/11/26 02:04:01;;;;;;;;;;;4.60;99.90;;;;;;5108885;27;20010;-70
2022/11/26 02:06:30;;;;;;;;;;;4.60;99.90;;;;;;5113418;27;19969;-70
2022/11/26 02:08:57;;;;;;;;;;;4.50;99.90;;;;;;5111749;27;19950;-69
2022/11/26 02:11:24;;;;;;;;;;;4.50;99.90;;;;;;5101277;27;20338;-70
2022/11/26 02:13:53;;;;;;;;;;;4.50;99.90;;;;;;5113136;27;20327;-69
2022/11/26 02:16:23;;;;;;;;;;;4.40;99.90;;;;;;5108930;27;19927;-69
2022/11/26 02:18:54;;;;;;;;;;;4.50;99.90;;;;;;5112111;27;19957;-69
2022/11/26 02:21:25;;;;;;;;;;;4.50;99.90;;;;;;5110749;27;19973;-69
2022/11/26 02:23:51;;;;;;;;;;;4.50;99.90;;;;;;5098334;28;19926;-70
2022/11/26 02:26:35;;;;;;;;;;;4.50;99.90;;;;;;5136465;27;19919;-70
2022/11/26 02:29:13;;;;;;;;;;;4.50;99.90;;;;;;5111447;27;19919;-70
2022/11/26 02:31:58;;;;;;;;;;;4.50;99.90;;;;;;5111963;27;19964;-70
2022/11/26 02:34:28;;;;;;;;;;;4.50;99.90;;;;;;5111011;27;19985;-70
2022/11/26 02:36:57;;;;;;;;;;;4.50;99.90;;;;;;5113067;27;20057;-69
2022/11/26 02:39:24;;;;;;;;;;;4.50;99.90;;;;;;5111883;27;19930;-70
2022/11/26 02:41:52;;;;;;;;;;;4.50;99.90;;;;;;5113191;27;19924;-69
2022/11/26 02:44:38;;;;;;;;;;;4.40;99.90;;;;;;5110312;27;19926;-71
2022/11/26 02:47:05;;;;;;;;;;;4.40;99.90;;;;;;5145110;27;19963;-69
2022/11/26 02:49:32;;;;;;;;;;;4.40;99.90;;;;;;5095682;28;19943;-70
2022/11/26 02:52:00;;;;;;;;;;;4.80;99.90;;;;;;5110307;27;19919;-70
2022/11/26 02:54:26;;;;;;;;;;;4.50;99.90;;;;;;5145501;27;19939;-70
2022/11/26 02:56:53;;;;;;;;;;;4.30;99.90;;;;;;5113346;27;20415;-69
2022/11/26 02:59:19;;;;;;;;;;;4.40;99.90;;;;;;5117773;27;20238;-70
2022/11/26 03:01:48;;;;;;;;;;;4.40;99.90;;;;;;5106866;27;19965;-70
2022/11/26 03:04:21;;;;;;;;;;;4.30;99.90;;;;;;5111055;27;19920;-69
2022/11/26 03:06:47;;;;;;;;;;;4.20;99.90;;;;;;5110438;27;19999;-70
2022/11/26 03:09:16;;;;;;;;;;;4.20;99.90;;;;;;5112468;27;20013;-70
2022/11/26 03:11:41;;;;;;;;;;;4.20;99.90;;;;;;5130463;27;20010;-70
2022/11/26 03:14:07;;;;;;;;;;;4.20;99.90;;;;;;5124621;27;20030;-70
2022/11/26 03:16:33;;;;;;;;;;;4.10;99.90;;;;;;5116260;27;19920;-70
2022/11/26 03:18:58;;;;;;;;;;;4.20;99.90;;;;;;5110209;28;19951;-70
2022/11/26 03:21:24;;;;;;;;;;;4.10;99.90;;;;;;5108814;27;19927;-70
2022/11/26 03:23:50;;;;;;;;;;;4.10;99.90;;;;;;5110146;27;19974;-69
2022/11/26 03:26:15;;;;;;;;;;;4.20;99.90;;;;;;5129766;27;19924;-70
2022/11/26 03:28:41;;;;;;;;;;;4.20;99.90;;;;;;5108760;27;19924;-70
2022/11/26 03:31:06;;;;;;;;;;;4.20;99.90;;;;;;5105048;28;19920;-70
2022/11/26 03:33:32;;;;;;;;;;;4.20;99.90;;;;;;5091898;28;19919;-70
2022/11/26 03:35:58;;;;;;;;;;;4.20;99.90;;;;;;5109481;27;19995;-70
2022/11/26 03:38:23;;;;;;;;;;;4.20;99.90;;;;;;5096084;27;19942;-70
2022/11/26 03:41:00;;;;;;;;;;;4.20;99.90;;;;;;5110337;27;19927;-70
2022/11/26 03:43:25;;;;;;;;;;;4.10;99.90;;;;;;5109250;27;19926;-70
2022/11/26 03:45:51;;;;;;;;;;;4.10;99.90;;;;;;5110538;28;19919;-70
2022/11/26 03:48:17;;;;;;;;;;;4.10;99.90;;;;;;5114423;27;19920;-69
2022/11/26 03:50:43;;;;;;;;;;;4.00;99.90;;;;;;5129518;27;19919;-70
2022/11/26 03:53:08;;;;;;;;;;;4.10;99.90;;;;;;5118780;27;20396;-70
2022/11/26 03:55:34;;;;;;;;;;;4.40;99.90;;;;;;5127276;27;19950;-69
2022/11/26 03:58:00;;;;;;;;;;;4.00;99.90;;;;;;5111068;27;19923;-70
2022/11/26 04:00:25;;;;;;;;;;;4.00;99.90;;;;;;5133363;27;19965;-70
2022/11/26 04:02:51;;;;;;;;;;;4.00;99.90;;;;;;5109810;27;20292;-69
2022/11/26 04:05:16;;;;;;;;;;;4.00;99.90;;;;;;5122369;27;20394;-69
2022/11/26 04:07:42;;;;;;;;;;;4.00;99.90;;;;;;5113263;27;19920;-70
2022/11/26 04:10:08;;;;;;;;;;;4.00;99.90;;;;;;5127047;27;19920;-69
2022/11/26 04:12:34;;;;;;;;;;;4.10;99.90;;;;;;5110696;27;20351;-70
2022/11/26 04:14:59;;;;;;;;;;;4.30;99.90;;;;;;5105776;27;19941;-70
2022/11/26 04:17:25;;;;;;;;;;;4.00;99.90;;;;;;5098549;28;19968;-70
2022/11/26 04:19:51;;;;;;;;;;;4.00;99.90;;;;;;5112338;27;19923;-69
2022/11/26 04:22:16;;;;;;;;;;;4.00;99.90;;;;;;5135481;27;20378;-70
2022/11/26 04:24:42;;;;;;;;;;;4.00;99.90;;;;;;5119157;27;19924;-69
2022/11/26 04:27:08;;;;;;;;;;;4.00;99.90;;;;;;5114798;27;19920;-70
2022/11/26 04:29:35;;;;;;;;;;;4.10;99.90;;;;;;5109870;27;19973;-69
2022/11/26 04:32:00;;;;;;;;;;;4.10;99.90;;;;;;5109809;27;19971;-70
2022/11/26 04:34:26;;;;;;;;;;;4.10;99.90;;;;;;5115165;27;19982;-70
2022/11/26 04:36:52;;;;;;;;;;;4.20;99.90;;;;;;5111201;28;19923;-70
2022/11/26 04:39:17;;;;;;;;;;;4.50;99.90;;;;;;5116210;27;20399;-70
2022/11/26 04:41:45;;;;;;;;;;;4.10;99.90;;;;;;5092083;28;20212;-70
2022/11/26 04:44:11;;;;;;;;;;;4.10;99.90;;;;;;5121108;28;20342;-70
2022/11/26 04:46:36;;;;;;;;;;;4.10;99.90;;;;;;5109269;28;20296;-70
2022/11/26 04:49:02;;;;;;;;;;;4.10;99.90;;;;;;5109421;28;20289;-70
2022/11/26 04:51:28;;;;;;;;;;;4.00;99.90;;;;;;5107749;28;19928;-70
2022/11/26 04:53:53;;;;;;;;;;;4.50;99.90;;;;;;5092010;28;19972;-70
2022/11/26 04:56:19;;;;;;;;;;;4.00;99.90;;;;;;5111670;28;19965;-70
2022/11/26 04:58:44;;;;;;;;;;;4.10;99.90;;;;;;5111541;28;20293;-70
2022/11/26 05:01:10;;;;;;;;;;;4.10;99.90;;;;;;5109417;28;19967;-70
2022/11/26 05:03:36;;;;;;;;;;;4.00;99.90;;;;;;5121411;28;19942;-70
2022/11/26 05:06:02;;;;;;;;;;;4.00;99.90;;;;;;5083146;28;19951;-70
2022/11/26 05:08:27;;;;;;;;;;;4.00;99.90;;;;;;5136484;27;19950;-69
2022/11/26 05:10:53;;;;;;;;;;;4.60;99.90;;;;;;5092601;28;19919;-70
2022/11/26 05:13:19;;;;;;;;;;;3.90;99.90;;;;;;5118951;28;19955;-70
2022/11/26 05:15:45;;;;;;;;;;;3.90;99.90;;;;;;5097056;28;19967;-69
2022/11/26 05:18:10;;;;;;;;;;;3.90;99.90;;;;;;5117246;28;20400;-70
2022/11/26 05:20:36;;;;;;;;;;;3.90;99.90;;;;;;5096204;28;19924;-70
2022/11/26 05:23:01;;;;;;;;;;;4.10;99.90;;;;;;5109330;28;19926;-70
2022/11/26 05:25:27;;;;;;;;;;;3.90;99.90;;;;;;5098943;28;19920;-70
2022/11/26 05:27:53;;;;;;;;;;;4.00;99.90;;;;;;5101179;28;19920;-70
2022/11/26 05:30:18;;;;;;;;;;;4.00;99.90;;;;;;5118923;28;19967;-69
2022/11/26 05:32:44;;;;;;;;;;;4.00;99.90;;;;;;5112171;28;19955;-69
2022/11/26 05:35:10;;;;;;;;;;;4.00;99.90;;;;;;5112090;28;19920;-69
2022/11/26 05:37:35;;;;;;;;;;;4.00;99.90;;;;;;5112808;28;19955;-69
2022/11/26 05:40:01;;;;;;;;;;;4.10;99.90;;;;;;5107561;28;20278;-69
2022/11/26 05:42:27;;;;;;;;;;;3.90;99.90;;;;;;5101057;28;19927;-70
2022/11/26 05:44:52;;;;;;;;;;;3.90;99.90;;;;;;5136338;27;19923;-70
2022/11/26 05:47:18;;;;;;;;;;;4.00;99.90;;;;;;5098189;27;19927;-70
2022/11/26 05:49:44;;;;;;;;;;;3.90;99.90;;;;;;5119440;27;19919;-70
2022/11/26 05:52:09;;;;;;;;;;;4.00;99.90;;;;;;5097214;27;19927;-70
2022/11/26 05:54:35;;;;;;;;;;;3.80;99.90;;;;;;5123635;27;19977;-70
2022/11/26 05:57:00;;;;;;;;;;;3.70;99.90;;;;;;5117991;27;19916;-70
2022/11/26 05:59:26;;;;;;;;;;;4.10;99.90;;;;;;5133654;27;19924;-70
2022/11/26 06:01:52;;;;;;;;;;;4.20;99.90;;;;;;5101788;27;20031;-70
2022/11/26 06:04:18;;;;;;;;;;;3.70;99.90;;;;;;5122689;27;19927;-70
2022/11/26 06:06:43;;;;;;;;;;;3.70;99.90;;;;;;5136612;27;19920;-69
2022/11/26 06:09:09;;;;;;;;;;;3.70;99.90;;;;;;5096587;27;19926;-70
2022/11/26 06:11:34;;;;;;;;;;;3.60;99.90;;;;;;5122371;27;19920;-70
2022/11/26 06:14:00;;;;;;;;;;;3.70;99.90;;;;;;5100020;28;20801;-70
2022/11/26 06:16:26;;;;;;;;;;;3.60;99.90;;;;;;5123599;27;19920;-70
2022/11/26 06:18:51;;;;;;;;;;;4.20;99.90;;;;;;5117073;27;20018;-70
2022/11/26 06:21:17;;;;;;;;;;;3.60;99.90;;;;;;5129981;27;20337;-70
2022/11/26 06:23:43;;;;;;;;;;;3.60;99.90;;;;;;5142694;27;19934;-69
2022/11/26 06:26:09;;;;;;;;;;;3.60;99.90;;;;;;5115465;27;19920;-70
2022/11/26 06:28:35;;;;;;;;;;;3.60;99.90;;;;;;5122460;27;20466;-69
2022/11/26 06:31:01;;;;;;;;;;;3.60;99.90;;;;;;5116900;27;19920;-70
2022/11/26 06:33:27;;;;;;;;;;;3.60;99.90;;;;;;5097289;28;20011;-70
2022/11/26 06:35:57;;;;;;;;;;;3.60;99.90;;;;;;5117800;27;19923;-70
2022/11/26 06:38:22;;;;;;;;;;;3.90;99.90;;;;;;5110953;27;20468;-69
2022/11/26 06:40:48;;;;;;;;;;;3.60;99.90;;;;;;5096542;28;20018;-70
2022/11/26 06:43:13;;;;;;;;;;;3.60;99.90;;;;;;5113711;27;19967;-69
2022/11/26 06:45:39;;;;;;;;;;;3.70;99.90;;;;;;5094256;27;19977;-70
2022/11/26 06:48:05;;;;;;;;;;;3.70;99.90;;;;;;5096514;28;19927;-70
2022/11/26 06:50:30;;;;;;;;;;;3.70;99.90;;;;;;5130257;27;19970;-70
2022/11/26 06:52:56;;;;;;;;;;;3.70;99.90;;;;;;5125723;27;19923;-70
2022/11/26 06:55:21;;;;;;;;;;;3.70;99.90;;;;;;5116161;27;19927;-70
2022/11/26 06:57:50;;;;;;;;;;;3.70;99.90;;;;;;5113878;27;19920;-70
2022/11/26 07:00:16;;;;;;;;;;;3.70;99.90;;;;;;5100105;27;20061;-69
2022/11/26 07:02:42;;;;;;;;;;;3.70;99.90;;;;;;5099792;28;19998;-70
2022/11/26 07:05:07;;;;;;;;;;;3.70;99.90;;;;;;5118392;27;19920;-69
2022/11/26 07:07:35;;;;;;;;;;;3.70;99.90;;;;;;5083072;27;20022;-69
2022/11/26 07:10:01;;;;;;;;;;;4.30;99.90;;;;;;5112160;27;20399;-70
2022/11/26 07:12:26;;;;;;;;;;;3.80;99.90;;;;;;5114642;27;19920;-70
2022/11/26 07:14:52;;;;;;;;;;;3.80;99.90;;;;;;5116436;27;20276;-70
2022/11/26 07:17:17;;;;;;;;;;;3.80;99.90;;;;;;5115532;27;20283;-70
2022/11/26 07:19:43;;;;;;;;;;;4.50;99.90;;;;;;5116822;27;20022;-70
2022/11/26 07:22:09;;;;;;;;;;;3.80;99.90;;;;;;5119540;27;20014;-70
2022/11/26 07:24:34;;;;;;;;;;;3.80;99.90;;;;;;5094754;28;19945;-70
2022/11/26 07:27:00;;;;;;;;;;;3.80;99.90;;;;;;5112719;27;19920;-70
2022/11/26 07:29:26;;;;;;;;;;;3.90;99.90;;;;;;5122169;27;19923;-70
2022/11/26 07:31:51;;;;;;;;;;;3.90;99.90;;;;;;5117872;27;19972;-70
2022/11/26 07:34:17;;;;;;;;;;;3.90;99.90;;;;;;5117352;27;19919;-70
2022/11/26 07:36:44;;;;;;;;;;;3.90;99.90;;;;;;5120604;27;20267;-70
2022/11/26 07:39:10;;;;;;;;;;;4.00;99.90;;;;;;5115653;27;19963;-70
2022/11/26 07:41:36;;;;;;;;;;;4.30;99.90;;;;;;5095637;28;19924;-69
2022/11/26 07:44:02;;;;;;;;;;;4.00;99.90;;;;;;5120258;27;20339;-70
2022/11/26 07:46:27;;;;;;;;;;;4.00;99.90;;;;;;5113150;27;20297;-70
2022/11/26 07:48:53;;;;;;;;;;;4.00;99.90;;;;;;5110604;27;19920;-70
2022/11/26 07:51:21;;;;;;;;;;;4.00;99.90;;;;;;5120068;27;19973;-69
2022/11/26 07:53:46;;;;;;;;;;;4.00;99.90;;;;;;5155236;27;19920;-70
2022/11/26 07:56:12;;;;;;;;;;;4.10;99.90;;;;;;5098379;27;20306;-70
2022/11/26 07:58:38;;;;;;;;;;;4.00;99.90;;;;;;5136472;27;19920;-68
2022/11/26 08:01:11;;;;;;;;;;;4.20;99.90;;;;;;5093307;28;19941;-68
2022/11/26 08:03:42;;;;;;;;;;;4.20;99.90;;;;;;5115294;27;19920;-69
2022/11/26 08:06:08;;;;;;;;;;;4.20;99.90;;;;;;5123193;27;19920;-68
2022/11/26 08:08:35;;;;;;;;;;;4.20;99.90;;;;;;5116739;27;20361;-69
2022/11/26 08:11:01;;;;;;;;;;;4.30;99.90;;;;;;5127447;27;19920;-68
2022/11/26 08:13:27;;;;;;;;;;;4.30;99.90;;;;;;5120279;27;20300;-69
2022/11/26 08:15:52;;;;;;;;;;;4.30;99.90;;;;;;5097833;27;19920;-69
2022/11/26 08:18:18;;;;;;;;;;;4.40;99.90;;;;;;5122959;27;19927;-69
2022/11/26 08:20:43;;;;;;;;;;;4.40;99.90;;;;;;5112988;27;19935;-68
2022/11/26 08:23:09;;;;;;;;;;;4.40;99.90;;;;;;5109541;27;19921;-69
2022/11/26 08:25:35;;;;;;;;;;;4.50;99.90;;;;;;5099857;28;19959;-69
2022/11/26 08:28:00;;;;;;;;;;;4.50;99.90;;;;;;5111071;27;20016;-69
2022/11/26 08:30:26;;;;;;;;;;;4.70;99.90;;;;;;5126236;27;19928;-68
2022/11/26 08:32:52;;;;;;;;;;;4.60;99.90;;;;;;5096635;27;19972;-69
2022/11/26 08:35:17;;;;;;;;;;;4.70;99.90;;;;;;5108423;28;19927;-69
2022/11/26 08:37:43;;;;;;;;;;;4.60;99.90;;;;;;5114208;27;19924;-69
2022/11/26 08:40:09;;;;;;;;;;;4.60;99.90;;;;;;5092578;28;19924;-69
2022/11/26 08:42:34;;;;;;;;;;;4.60;99.90;;;;;;5118203;27;19919;-68
2022/11/26 08:45:00;;;;;;;;;;;4.60;99.90;;;;;;5100249;28;19972;-69
2022/11/26 08:47:26;;;;;;;;;;;4.60;99.90;;;;;;5092764;28;19920;-69
2022/11/26 08:49:52;;;;;;;;;;;4.70;99.90;;;;;;5117951;28;20008;-69
2022/11/26 08:52:18;;;;;;;;;;;4.70;99.90;;;;;;5113936;28;19920;-69
2022/11/26 08:54:43;;;;;;;;;;;4.80;99.90;;;;;;5117785;28;20372;-69
2022/11/26 08:57:09;;;;;;;;;;;5.20;99.90;;;;;;5095065;28;19920;-69
2022/11/26 08:59:34;;;;;;;;;;;4.90;99.90;;;;;;5108950;28;19938;-69
2022/11/26 09:02:00;;;;;;;;;;;4.90;99.90;;;;;;5121268;28;20380;-68
2022/11/26 09:04:26;;;;;;;;;;;5.00;99.90;;;;;;5093937;28;20380;-69
2022/11/26 09:06:51;;;;;;;;;;;5.00;99.90;;;;;;5098680;28;19927;-69
2022/11/26 09:09:17;;;;;;;;;;;5.10;99.90;;;;;;5127540;27;19927;-69
2022/11/26 09:11:48;;;;;;;;;;;5.10;99.90;;;;;;5120277;28;19927;-69
2022/11/26 09:14:15;;;;;;;;;;;5.20;99.90;;;;;;5104295;28;19919;-68
2022/11/26 09:16:41;;;;;;;;;;;5.20;99.90;;;;;;5138903;27;19928;-68
2022/11/26 09:19:07;;;;;;;;;;;5.30;99.90;;;;;;5119241;27;19930;-69
2022/11/26 09:21:34;;;;;;;;;;;5.30;99.90;;;;;;5126454;27;19927;-69
2022/11/26 09:24:00;;;;;;;;;;;5.30;99.90;;;;;;5118090;27;19927;-68
2022/11/26 09:26:25;;;;;;;;;;;5.30;99.90;;;;;;5112192;27;19923;-69
2022/11/26 09:28:51;;;;;;;;;;;5.30;99.90;;;;;;5121095;27;19923;-69
2022/11/26 09:31:17;;;;;;;;;;;5.40;99.90;;;;;;5133550;27;20305;-69
2022/11/26 09:33:43;;;;;;;;;;;5.40;99.90;;;;;;5136283;27;20517;-68
2022/11/26 09:36:10;;;;;;;;;;;5.40;99.90;;;;;;5116104;27;19969;-68
2022/11/26 09:38:36;;;;;;;;;;;5.40;99.90;;;;;;5117524;27;20414;-69
2022/11/26 09:41:09;;;;;;;;;;;5.50;99.90;;;;;;5112222;27;19923;-68
2022/11/26 09:44:04;;;;;;;;;;;5.60;99.90;;;;;;5112829;27;20003;-69
2022/11/26 09:46:50;;;;;;;;;;;5.60;99.90;;;;;;5132869;27;20289;-68
2022/11/26 09:49:16;;;;;;;;;;;5.60;99.90;;;;;;5130625;27;19924;-68
2022/11/26 09:51:43;;;;;;;;;;;5.70;99.90;;;;;;5113137;27;20392;-68
2022/11/26 09:54:17;;;;;;;;;;;5.70;99.90;;;;;;5112786;27;19920;-69
2022/11/26 09:56:42;;;;;;;;;;;5.70;99.90;;;;;;5129802;27;20455;-69
2022/11/26 09:59:10;;;;;;;;;;;5.70;99.90;;;;;;5112820;27;19999;-68
2022/11/26 10:01:36;;;;;;;;;;;6.20;99.90;;;;;;5118682;27;19923;-69
2022/11/26 10:04:05;;;;;;;;;;;5.80;99.90;;;;;;5115203;27;20283;-69
2022/11/26 10:06:33;;;;;;;;;;;5.80;99.90;;;;;;5110298;27;19926;-68
2022/11/26 10:09:08;;;;;;;;;;;5.80;99.90;;;;;;5116650;27;19919;-69
2022/11/26 10:11:37;;;;;;;;;;;5.80;99.90;;;;;;5119752;27;19920;-69
2022/11/26 10:14:11;;;;;;;;;;;5.90;99.90;;;;;;5120491;27;20384;-69
2022/11/26 10:16:42;;;;;;;;;;;6.90;99.90;;;;;;5115627;27;19924;-68
2022/11/26 10:19:27;;;;;;;;;;;5.90;99.90;;;;;;5117192;27;19924;-68
2022/11/26 10:21:54;;;;;;;;;;;5.90;99.90;;;;;;5119584;27;20329;-69
2022/11/26 10:24:25;;;;;;;;;;;6.00;99.90;;;;;;5117458;27;19927;-69
2022/11/26 10:26:51;;;;;;;;;;;6.30;99.90;;;;;;5113686;27;19927;-69
2022/11/26 10:29:31;;;;;;;;;;;6.10;99.90;;;;;;5099974;27;20062;-68
2022/11/26 10:31:58;;;;;;;;;;;6.10;99.90;;;;;;5112153;27;19919;-69
2022/11/26 10:34:31;;;;;;;;;;;6.10;99.90;;;;;;5116001;27;19927;-68
2022/11/26 10:36:57;;;;;;;;;;;6.20;99.90;;;;;;5117745;27;19926;-69
2022/11/26 10:39:22;;;;;;;;;;;6.20;99.90;;;;;;5096192;28;19924;-68
2022/11/26 10:41:48;;;;;;;;;;;6.30;99.90;;;;;;5128577;27;19931;-68
2022/11/26 10:44:26;;;;;;;;;;;6.30;99.90;;;;;;5121924;27;20380;-68
2022/11/26 10:46:52;;;;;;;;;;;6.30;99.90;;;;;;5114711;27;19919;-68
2022/11/26 10:49:22;;;;;;;;;;;6.40;99.90;;;;;;5111644;27;20377;-68
2022/11/26 10:51:49;;;;;;;;;;;6.40;99.90;;;;;;5095695;27;19926;-68
2022/11/26 10:54:23;;;;;;;;;;;6.40;99.90;;;;;;5110154;27;19923;-68
2022/11/26 10:56:52;;;;;;;;;;;6.50;99.90;;;;;;5129521;27;20001;-67
2022/11/26 10:59:17;;;;;;;;;;;6.60;99.90;;;;;;5094827;28;20389;-69
2022/11/26 11:01:43;;;;;;;;;;;6.60;99.90;;;;;;5117582;27;19976;-69
2022/11/26 11:04:24;;;;;;;;;;;6.70;99.90;;;;;;5111758;27;20404;-69
2022/11/26 11:06:50;;;;;;;;;;;6.60;99.90;;;;;;5119784;27;19968;-69
2022/11/26 11:09:28;;;;;;;;;;;6.70;99.90;;;;;;5098905;28;19928;-69
2022/11/26 11:12:12;;;;;;;;;;;6.70;99.90;;;;;;5118104;27;19927;-68
2022/11/26 11:14:43;;;;;;;;;;;6.80;99.90;;;;;;5112183;27;19919;-68
2022/11/26 11:17:18;;;;;;;;;;;6.90;99.90;;;;;;5116407;27;19972;-69
2022/11/26 11:19:44;;;;;;;;;;;6.90;99.90;;;;;;5112883;27;19924;-69
2022/11/26 11:22:17;;;;;;;;;;;6.90;99.90;;;;;;5117068;27;19927;-69
2022/11/26 11:24:43;;;;;;;;;;;6.90;99.90;;;;;;5113021;27;19927;-68
2022/11/26 11:27:19;;;;;;;;;;;7.00;99.90;;;;;;5119361;27;19920;-69
2022/11/26 11:29:45;;;;;;;;;;;7.00;99.90;;;;;;5128544;27;19969;-69
2022/11/26 11:32:50;;;;;;;;;;;7.00;99.90;;;;;;5105017;28;20468;-69
2022/11/26 11:35:18;;;;;;;;;;;7.10;99.90;;;;;;5077804;28;19920;-69
2022/11/26 11:37:47;;;;;;;;;;;7.10;99.90;;;;;;5062864;28;19920;-69
2022/11/26 11:40:14;;;;;;;;;;;7.20;99.90;;;;;;5070602;27;19946;-69
2022/11/26 11:42:40;;;;;;;;;;;7.20;99.90;;;;;;5116444;27;19931;-69
2022/11/26 11:45:16;;;;;;;;;;;7.30;99.90;;;;;;5132501;27;20559;-69
2022/11/26 11:47:42;;;;;;;;;;;7.20;99.90;;;;;;5094086;28;19924;-69
2022/11/26 11:50:28;;;;;;;;;;;7.20;99.90;;;;;;5115689;27;19920;-68
2022/11/26 11:53:12;;;;;;;;;;;7.30;99.90;;;;;;5110166;27;19923;-69
2022/11/26 11:55:53;;;;;;;;;;;7.30;99.90;;;;;;5111497;27;19926;-69
2022/11/26 11:58:21;;;;;;;;;;;7.40;99.90;;;;;;5100721;28;19921;-68
2022/11/26 12:00:55;;;;;;;;;;;7.40;99.90;;;;;;5094262;28;20007;-69
2022/11/26 12:03:40;;;;;;;;;;;7.40;99.90;;;;;;5128430;27;19920;-69
2022/11/26 12:06:15;;;;;;;;;;;7.40;99.90;;;;;;5109963;28;19927;-69
2022/11/26 12:08:43;;;;;;;;;;;7.40;99.90;;;;;;5099178;28;20369;-69
2022/11/26 12:11:28;;;;;;;;;;;7.40;99.90;;;;;;5109828;27;19927;-69
2022/11/26 12:13:57;;;;;;;;;;;7.40;99.90;;;;;;5097814;28;19971;-69
2022/11/26 12:16:24;;;;;;;;;;;7.50;99.90;;;;;;5109413;27;19994;-69
2022/11/26 12:18:53;;;;;;;;;;;7.50;99.90;;;;;;5117172;27;19926;-68
2022/11/26 12:21:24;;;;;;;;;;;7.50;99.90;;;;;;5110074;27;19969;-69
2022/11/26 12:24:10;;;;;;;;;;;7.50;99.90;;;;;;5117918;27;19930;-69
2022/11/26 12:26:38;;;;;;;;;;;7.60;99.90;;;;;;5155048;27;19928;-69
2022/11/26 12:29:14;;;;;;;;;;;7.60;99.90;;;;;;5115985;27;20437;-69
2022/11/26 12:32:16;;;;;;;;;;;7.60;99.90;;;;;;5095880;27;19976;-68
2022/11/26 12:34:44;;;;;;;;;;;7.60;99.90;;;;;;5059624;28;20394;-68
2022/11/26 12:37:16;;;;;;;;;;;7.60;99.90;;;;;;5118414;27;19973;-68
2022/11/26 12:39:46;;;;;;;;;;;7.60;99.90;;;;;;5112579;27;19923;-68
2022/11/26 12:42:24;;;;;;;;;;;7.60;99.90;;;;;;5116068;27;20056;-68
2022/11/26 12:44:51;;;;;;;;;;;7.60;99.90;;;;;;5134304;27;19920;-69
2022/11/26 12:47:52;;;;;;;;;;;7.60;99.90;;;;;;5126180;27;19928;-69
2022/11/26 12:50:31;;;;;;;;;;;7.70;99.90;;;;;;5086056;28;19920;-68
2022/11/26 12:53:11;;;;;;;;;;;7.70;99.90;;;;;;5102594;28;19931;-69
2022/11/26 12:55:55;;;;;;;;;;;7.70;99.90;;;;;;5107315;28;19931;-69
2022/11/26 12:58:25;;;;;;;;;;;7.70;99.90;;;;;;5099645;28;19920;-69
2022/11/26 13:00:53;;;;;;;;;;;7.80;99.90;;;;;;5108739;28;19923;-69
2022/11/26 13:03:23;;;;;;;;;;;7.70;99.90;;;;;;5117057;28;20518;-68
2022/11/26 13:06:07;;;;;;;;;;;7.70;99.90;;;;;;5111775;28;19927;-68
2022/11/26 13:08:57;;;;;;;;;;;7.70;99.90;;;;;;5116609;28;20228;-69
2022/11/26 13:11:41;;;;;;;;;;;7.70;99.90;;;;;;5108162;28;19996;-69
2022/11/26 13:14:26;;;;;;;;;;;7.70;99.90;;;;;;5116041;28;19927;-68
2022/11/26 13:16:51;;;;;;;;;;;7.80;99.90;;;;;;5111950;28;20342;-69
2022/11/26 13:19:23;;;;;;;;;;;7.80;99.90;;;;;;5147784;27;19924;-68
2022/11/26 13:22:09;;;;;;;;;;;7.70;99.90;;;;;;5119603;28;19942;-68
2022/11/26 13:24:49;;;;;;;;;;;7.70;99.90;;;;;;5092696;28;20289;-69
2022/11/26 13:27:50;;;;;;;;;;;7.70;99.90;;;;;;5111470;28;20414;-69
2022/11/26 13:30:18;;;;;;;;;;;7.80;99.90;;;;;;5065426;28;19924;-68
2022/11/26 13:32:56;;;;;;;;;;;7.70;99.90;;;;;;5076674;28;20481;-68
2022/11/26 13:35:31;;;;;;;;;;;7.70;99.90;;;;;;5109404;28;19955;-68
2022/11/26 13:38:35;;;;;;;;;;;7.70;99.90;;;;;;5106310;28;20386;-69
2022/11/26 13:41:12;;;;;;;;;;;7.70;99.90;;;;;;5028306;28;19972;-68
2022/11/26 13:43:52;;;;;;;;;;;7.70;99.90;;;;;;5039746;28;20341;-68
2022/11/26 13:46:39;;;;;;;;;;;7.70;99.90;;;;;;5091620;27;20030;-69
2022/11/26 13:49:12;;;;;;;;;;;7.70;99.90;;;;;;5108246;28;19919;-69
2022/11/26 13:51:41;;;;;;;;;;;7.70;99.90;;;;;;5113379;28;19920;-69
2022/11/26 13:54:15;;;;;;;;;;;7.70;99.90;;;;;;5092245;28;19935;-69
2022/11/26 13:56:41;;;;;;;;;;;7.70;99.90;;;;;;5114976;28;20006;-69
2022/11/26 13:59:20;;;;;;;;;;;7.70;99.90;;;;;;5124634;27;19938;-69
2022/11/26 14:01:46;;;;;;;;;;;7.60;99.90;;;;;;5113688;27;19969;-69
2022/11/26 14:04:21;;;;;;;;;;;7.60;99.90;;;;;;5095908;27;19972;-69
2022/11/26 14:07:04;;;;;;;;;;;7.60;99.90;;;;;;5113413;27;19924;-69
2022/11/26 14:09:45;;;;;;;;;;;7.60;99.90;;;;;;5112552;27;20309;-69
2022/11/26 14:12:18;;;;;;;;;;;7.60;99.90;;;;;;5093488;27;19927;-69
2022/11/26 14:14:46;;;;;;;;;;;7.60;99.90;;;;;;5116838;27;19920;-69
2022/11/26 14:17:12;;;;;;;;;;;7.60;99.90;;;;;;5118187;27;19965;-69
2022/11/26 14:19:40;;;;;;;;;;;7.60;99.90;;;;;;5120398;27;19923;-69
2022/11/26 14:22:07;;;;;;;;;;;7.60;99.90;;;;;;5148330;27;19935;-69
2022/11/26 14:24:48;;;;;;;;;;;7.60;99.90;;;;;;5114026;27;19958;-69
2022/11/26 14:27:23;;;;;;;;;;;7.60;99.90;;;;;;5115508;27;19997;-69
2022/11/26 14:29:53;;;;;;;;;;;7.60;99.90;;;;;;5113075;27;19965;-68
2022/11/26 14:32:21;;;;;;;;;;;7.60;99.90;;;;;;5095502;28;19963;-69
2022/11/26 14:34:51;;;;;;;;;;;7.50;99.90;;;;;;5114485;27;19920;-69
2022/11/26 14:37:18;;;;;;;;;;;7.50;99.90;;;;;;5128585;27;19927;-68
2022/11/26 14:39:44;;;;;;;;;;;7.50;99.90;;;;;;5096561;27;19928;-69
2022/11/26 14:42:13;;;;;;;;;;;7.50;99.90;;;;;;5115259;27;19931;-69